sensor_id;sensor_type;location;lat;lon;timestamp;pressure;altitude;pressure_sealevel;temperature;humidity
80248;BME280;69560;52.206;21.018;2023-09-19T00:00:17;99548.38;;;20.67;57.12
80248;BME280;69560;52.206;21.018;2023-09-19T00:03:05;99546.34;;;20.62;57.26
80248;BME280;69560;52.206;21.018;2023-09-19T00:05:37;99547.31;;;20.62;57.33
80248;BME280;69560;52.206;21.018;2023-09-19T00:08:10;99540.16;;;20.60;57.32
80248;BME280;69560;52.206;21.018;2023-09-19T00:10:39;99538.75;;;20.61;57.35
80248;BME280;69560;52.206;21.018;2023-09-19T00:13:08;99537.14;;;20.61;57.47
80248;BME280;69560;52.206;21.018;2023-09-19T00:15:41;99535.65;;;20.57;57.22
80248;BME280;69560;52.206;21.018;2023-09-19T00:18:08;99538.96;;;20.54;57.27
80248;BME280;69560;52.206;21.018;2023-09-19T00:20:36;99534.58;;;20.51;57.44
80248;BME280;69560;52.206;21.018;2023-09-19T00:23:03;99534.09;;;20.50;57.62
80248;BME280;69560;52.206;21.018;2023-09-19T00:25:31;99532.97;;;20.45;57.37
80248;BME280;69560;52.206;21.018;2023-09-19T00:28:02;99538.85;;;20.40;57.45
80248;BME280;69560;52.206;21.018;2023-09-19T00:30:28;99537.45;;;20.36;57.54
80248;BME280;69560;52.206;21.018;2023-09-19T00:32:55;99538.02;;;20.36;57.79
80248;BME280;69560;52.206;21.018;2023-09-19T00:35:22;99531.82;;;20.36;57.87
80248;BME280;69560;52.206;21.018;2023-09-19T00:37:53;99529.02;;;20.36;57.83
80248;BME280;69560;52.206;21.018;2023-09-19T00:40:20;99528.75;;;20.36;58.03
80248;BME280;69560;52.206;21.018;2023-09-19T00:42:48;99528.20;;;20.34;57.91
80248;BME280;69560;52.206;21.018;2023-09-19T00:45:16;99521.84;;;20.36;58.14
80248;BME280;69560;52.206;21.018;2023-09-19T00:47:45;99517.65;;;20.39;58.13
80248;BME280;69560;52.206;21.018;2023-09-19T00:50:15;99515.64;;;20.41;57.96
80248;BME280;69560;52.206;21.018;2023-09-19T00:52:44;99512.20;;;20.36;57.84
80248;BME280;69560;52.206;21.018;2023-09-19T00:55:11;99514.36;;;20.24;57.80
80248;BME280;69560;52.206;21.018;2023-09-19T00:57:40;99518.27;;;20.19;58.12
80248;BME280;69560;52.206;21.018;2023-09-19T01:00:08;99515.88;;;20.18;58.35
80248;BME280;69560;52.206;21.018;2023-09-19T01:02:42;99516.52;;;20.19;58.26
80248;BME280;69560;52.206;21.018;2023-09-19T01:05:09;99508.45;;;20.20;58.41
80248;BME280;69560;52.206;21.018;2023-09-19T01:07:36;99510.11;;;20.23;58.32
80248;BME280;69560;52.206;21.018;2023-09-19T01:10:12;99509.45;;;20.24;58.37
80248;BME280;69560;52.206;21.018;2023-09-19T01:21:46;99496.41;;;20.10;58.90
80248;BME280;69560;52.206;21.018;2023-09-19T01:24:43;99491.95;;;20.14;58.85
80248;BME280;69560;52.206;21.018;2023-09-19T01:29:50;99482.65;;;20.10;58.81
80248;BME280;69560;52.206;21.018;2023-09-19T01:32:18;99480.38;;;20.11;58.99
80248;BME280;69560;52.206;21.018;2023-09-19T01:34:50;99475.45;;;20.07;58.91
80248;BME280;69560;52.206;21.018;2023-09-19T01:37:18;99478.27;;;20.04;58.82
80248;BME280;69560;52.206;21.018;2023-09-19T01:39:54;99477.25;;;20.03;59.11
80248;BME280;69560;52.206;21.018;2023-09-19T01:42:44;99476.77;;;20.08;59.20
80248;BME280;69560;52.206;21.018;2023-09-19T01:45:17;99473.16;;;20.13;59.39
80248;BME280;69560;52.206;21.018;2023-09-19T01:47:52;99469.66;;;20.17;59.14
80248;BME280;69560;52.206;21.018;2023-09-19T01:51:15;99470.55;;;20.20;59.17
80248;BME280;69560;52.206;21.018;2023-09-19T01:53:33;99460.55;;;20.21;59.28
80248;BME280;69560;52.206;21.018;2023-09-19T01:56:05;99452.41;;;20.21;59.18
80248;BME280;69560;52.206;21.018;2023-09-19T01:58:41;99455.14;;;20.16;59.07
80248;BME280;69560;52.206;21.018;2023-09-19T02:01:11;99458.73;;;20.12;58.91
80248;BME280;69560;52.206;21.018;2023-09-19T02:03:39;99458.23;;;20.09;59.00
80248;BME280;69560;52.206;21.018;2023-09-19T02:06:07;99461.26;;;20.05;59.05
80248;BME280;69560;52.206;21.018;2023-09-19T02:08:37;99458.80;;;20.04;59.19
80248;BME280;69560;52.206;21.018;2023-09-19T02:11:04;99453.40;;;20.02;59.38
80248;BME280;69560;52.206;21.018;2023-09-19T02:13:32;99455.59;;;20.01;59.29
80248;BME280;69560;52.206;21.018;2023-09-19T02:15:59;99449.16;;;20.04;59.41
80248;BME280;69560;52.206;21.018;2023-09-19T02:18:26;99447.95;;;20.04;59.34
80248;BME280;69560;52.206;21.018;2023-09-19T02:20:54;99453.16;;;20.07;59.44
80248;BME280;69560;52.206;21.018;2023-09-19T02:23:22;99449.41;;;20.09;59.40
80248;BME280;69560;52.206;21.018;2023-09-19T02:25:53;99446.70;;;20.11;59.62
80248;BME280;69560;52.206;21.018;2023-09-19T02:28:20;99445.09;;;20.13;59.50
80248;BME280;69560;52.206;21.018;2023-09-19T02:30:49;99437.94;;;20.08;59.18
80248;BME280;69560;52.206;21.018;2023-09-19T02:33:16;99435.16;;;20.07;59.45
80248;BME280;69560;52.206;21.018;2023-09-19T02:35:46;99432.91;;;20.09;59.57
80248;BME280;69560;52.206;21.018;2023-09-19T02:38:13;99431.50;;;20.13;59.47
80248;BME280;69560;52.206;21.018;2023-09-19T02:40:40;99428.27;;;20.13;59.43
80248;BME280;69560;52.206;21.018;2023-09-19T02:43:09;99423.53;;;20.08;59.38
80248;BME280;69560;52.206;21.018;2023-09-19T02:45:36;99426.36;;;19.93;59.27
80248;BME280;69560;52.206;21.018;2023-09-19T02:48:03;99430.33;;;19.84;59.54
80248;BME280;69560;52.206;21.018;2023-09-19T02:50:30;99426.59;;;19.77;59.55
80248;BME280;69560;52.206;21.018;2023-09-19T02:52:56;99421.92;;;19.75;59.69
80248;BME280;69560;52.206;21.018;2023-09-19T02:55:23;99422.20;;;19.74;59.77
80248;BME280;69560;52.206;21.018;2023-09-19T02:57:52;99419.40;;;19.74;59.88
80248;BME280;69560;52.206;21.018;2023-09-19T03:00:21;99419.06;;;19.74;60.16
80248;BME280;69560;52.206;21.018;2023-09-19T03:02:54;99414.88;;;19.71;60.22
80248;BME280;69560;52.206;21.018;2023-09-19T03:05:22;99411.77;;;19.68;60.06
80248;BME280;69560;52.206;21.018;2023-09-19T03:07:50;99403.84;;;19.70;60.21
80248;BME280;69560;52.206;21.018;2023-09-19T03:10:20;99401.14;;;19.74;60.31
80248;BME280;69560;52.206;21.018;2023-09-19T03:12:47;99397.58;;;19.74;60.36
80248;BME280;69560;52.206;21.018;2023-09-19T03:15:15;99397.29;;;19.74;60.19
80248;BME280;69560;52.206;21.018;2023-09-19T03:17:45;99398.88;;;19.74;60.44
80248;BME280;69560;52.206;21.018;2023-09-19T03:20:14;99400.38;;;19.73;60.35
80248;BME280;69560;52.206;21.018;2023-09-19T03:22:44;99403.05;;;19.64;60.09
80248;BME280;69560;52.206;21.018;2023-09-19T03:25:10;99400.71;;;19.49;60.01
80248;BME280;69560;52.206;21.018;2023-09-19T03:27:39;99398.77;;;19.47;60.33
80248;BME280;69560;52.206;21.018;2023-09-19T03:30:06;99404.39;;;19.47;60.35
80248;BME280;69560;52.206;21.018;2023-09-19T03:32:35;99405.17;;;19.45;60.54
80248;BME280;69560;52.206;21.018;2023-09-19T03:35:03;99396.98;;;19.42;60.49
80248;BME280;69560;52.206;21.018;2023-09-19T03:37:32;99396.52;;;19.41;60.63
80248;BME280;69560;52.206;21.018;2023-09-19T03:40:00;99394.73;;;19.44;60.83
80248;BME280;69560;52.206;21.018;2023-09-19T03:42:31;99389.37;;;19.52;60.82
80248;BME280;69560;52.206;21.018;2023-09-19T03:44:58;99386.48;;;19.60;60.86
80248;BME280;69560;52.206;21.018;2023-09-19T03:47:26;99382.43;;;19.63;60.87
80248;BME280;69560;52.206;21.018;2023-09-19T03:49:52;99388.26;;;19.67;60.82
80248;BME280;69560;52.206;21.018;2023-09-19T03:52:19;99386.00;;;19.67;60.77
80248;BME280;69560;52.206;21.018;2023-09-19T03:54:45;99380.92;;;19.67;60.73
80248;BME280;69560;52.206;21.018;2023-09-19T03:57:12;99381.70;;;19.70;60.90
80248;BME280;69560;52.206;21.018;2023-09-19T03:59:42;99380.92;;;19.68;60.63
80248;BME280;69560;52.206;21.018;2023-09-19T04:02:09;99377.84;;;19.66;60.62
80248;BME280;69560;52.206;21.018;2023-09-19T04:04:49;99374.42;;;19.67;60.71
80248;BME280;69560;52.206;21.018;2023-09-19T04:07:15;99378.94;;;19.67;60.75
80248;BME280;69560;52.206;21.018;2023-09-19T04:09:42;99377.96;;;19.64;60.51
80248;BME280;69560;52.206;21.018;2023-09-19T04:12:09;99376.86;;;19.58;60.58
80248;BME280;69560;52.206;21.018;2023-09-19T04:14:35;99367.70;;;19.51;60.64
80248;BME280;69560;52.206;21.018;2023-09-19T04:17:02;99365.11;;;19.51;60.70
80248;BME280;69560;52.206;21.018;2023-09-19T04:19:29;99361.24;;;19.52;60.81
80248;BME280;69560;52.206;21.018;2023-09-19T04:21:56;99358.76;;;19.46;60.64
80248;BME280;69560;52.206;21.018;2023-09-19T04:24:23;99357.70;;;19.47;60.92
80248;BME280;69560;52.206;21.018;2023-09-19T04:26:50;99355.55;;;19.46;61.03
80248;BME280;69560;52.206;21.018;2023-09-19T04:29:16;99353.36;;;19.47;61.03
80248;BME280;69560;52.206;21.018;2023-09-19T04:31:45;99357.37;;;19.50;61.13
80248;BME280;69560;52.206;21.018;2023-09-19T04:34:12;99349.71;;;19.48;61.00
80248;BME280;69560;52.206;21.018;2023-09-19T04:36:43;99351.20;;;19.41;60.70
80248;BME280;69560;52.206;21.018;2023-09-19T04:39:10;99348.29;;;19.34;60.81
80248;BME280;69560;52.206;21.018;2023-09-19T04:41:39;99346.88;;;19.33;61.08
80248;BME280;69560;52.206;21.018;2023-09-19T04:44:07;99344.08;;;19.35;61.21
80248;BME280;69560;52.206;21.018;2023-09-19T04:46:34;99347.49;;;19.42;61.44
80248;BME280;69560;52.206;21.018;2023-09-19T04:49:01;99343.58;;;19.46;61.35
80248;BME280;69560;52.206;21.018;2023-09-19T04:51:28;99342.79;;;19.51;61.47
80248;BME280;69560;52.206;21.018;2023-09-19T04:54:00;99342.52;;;19.55;61.50
80248;BME280;69560;52.206;21.018;2023-09-19T04:56:27;99342.63;;;19.59;61.53
80248;BME280;69560;52.206;21.018;2023-09-19T04:58:55;99341.96;;;19.62;61.38
80248;BME280;69560;52.206;21.018;2023-09-19T05:01:21;99341.27;;;19.61;61.28
80248;BME280;69560;52.206;21.018;2023-09-19T05:03:49;99339.38;;;19.57;61.17
80248;BME280;69560;52.206;21.018;2023-09-19T05:06:19;99337.06;;;19.57;61.05
80248;BME280;69560;52.206;21.018;2023-09-19T05:08:49;99343.17;;;19.59;61.46
80248;BME280;69560;52.206;21.018;2023-09-19T05:11:20;99342.75;;;19.60;61.32
80248;BME280;69560;52.206;21.018;2023-09-19T05:13:49;99339.94;;;19.52;61.08
80248;BME280;69560;52.206;21.018;2023-09-19T05:16:19;99339.15;;;19.49;61.36
80248;BME280;69560;52.206;21.018;2023-09-19T05:18:45;99336.42;;;19.49;61.47
80248;BME280;69560;52.206;21.018;2023-09-19T05:21:12;99333.55;;;19.51;61.45
80248;BME280;69560;52.206;21.018;2023-09-19T05:23:39;99333.16;;;19.53;61.50
80248;BME280;69560;52.206;21.018;2023-09-19T05:26:05;99326.48;;;19.53;61.48
80248;BME280;69560;52.206;21.018;2023-09-19T05:28:32;99330.00;;;19.57;61.54
80248;BME280;69560;52.206;21.018;2023-09-19T05:31:01;99333.22;;;19.59;61.63
80248;BME280;69560;52.206;21.018;2023-09-19T05:33:28;99331.59;;;19.57;61.64
80248;BME280;69560;52.206;21.018;2023-09-19T05:35:57;99334.72;;;19.55;61.50
80248;BME280;69560;52.206;21.018;2023-09-19T05:38:23;99333.67;;;19.52;61.46
80248;BME280;69560;52.206;21.018;2023-09-19T05:40:53;99332.50;;;19.49;61.41
80248;BME280;69560;52.206;21.018;2023-09-19T05:43:20;99331.31;;;19.50;61.63
80248;BME280;69560;52.206;21.018;2023-09-19T05:45:46;99329.67;;;19.54;61.65
80248;BME280;69560;52.206;21.018;2023-09-19T05:48:14;99328.98;;;19.58;61.80
80248;BME280;69560;52.206;21.018;2023-09-19T05:50:42;99330.23;;;19.61;61.68
80248;BME280;69560;52.206;21.018;2023-09-19T05:53:08;99320.89;;;19.60;61.74
80248;BME280;69560;52.206;21.018;2023-09-19T05:55:38;99319.98;;;19.61;61.64
80248;BME280;69560;52.206;21.018;2023-09-19T05:58:06;99320.91;;;19.62;61.60
80248;BME280;69560;52.206;21.018;2023-09-19T06:00:32;99314.02;;;19.64;61.47
80248;BME280;69560;52.206;21.018;2023-09-19T06:02:59;99317.09;;;19.68;61.57
80248;BME280;69560;52.206;21.018;2023-09-19T06:05:26;99317.50;;;19.73;61.47
80248;BME280;69560;52.206;21.018;2023-09-19T06:07:54;99319.63;;;19.79;61.56
80248;BME280;69560;52.206;21.018;2023-09-19T06:10:21;99319.55;;;19.81;61.48
80248;BME280;69560;52.206;21.018;2023-09-19T06:12:49;99319.17;;;19.83;61.45
80248;BME280;69560;52.206;21.018;2023-09-19T06:15:16;99322.67;;;19.84;61.38
80248;BME280;69560;52.206;21.018;2023-09-19T06:17:49;99330.45;;;19.87;61.41
80248;BME280;69560;52.206;21.018;2023-09-19T06:20:17;99342.60;;;19.94;61.32
80248;BME280;69560;52.206;21.018;2023-09-19T06:22:45;99350.24;;;20.04;61.46
80248;BME280;69560;52.206;21.018;2023-09-19T06:25:13;99351.71;;;20.13;61.43
80248;BME280;69560;52.206;21.018;2023-09-19T06:30:13;99354.05;;;20.23;61.24
80248;BME280;69560;52.206;21.018;2023-09-19T06:32:41;99354.73;;;20.31;61.35
80248;BME280;69560;52.206;21.018;2023-09-19T06:35:12;99353.04;;;20.38;61.05
80248;BME280;69560;52.206;21.018;2023-09-19T06:37:40;99353.86;;;20.42;61.07
80248;BME280;69560;52.206;21.018;2023-09-19T06:40:09;99354.95;;;20.48;60.94
80248;BME280;69560;52.206;21.018;2023-09-19T06:42:45;99356.47;;;20.53;60.90
80248;BME280;69560;52.206;21.018;2023-09-19T06:45:15;99360.67;;;20.54;60.69
80248;BME280;69560;52.206;21.018;2023-09-19T06:47:48;99359.63;;;20.59;60.82
80248;BME280;69560;52.206;21.018;2023-09-19T06:50:20;99362.35;;;20.66;60.75
80248;BME280;69560;52.206;21.018;2023-09-19T06:52:53;99362.53;;;20.70;60.54
80248;BME280;69560;52.206;21.018;2023-09-19T06:55:21;99361.98;;;20.76;60.56
80248;BME280;69560;52.206;21.018;2023-09-19T06:57:50;99369.21;;;20.84;60.64
80248;BME280;69560;52.206;21.018;2023-09-19T07:00:17;99367.29;;;20.90;60.39
80248;BME280;69560;52.206;21.018;2023-09-19T07:02:59;99364.98;;;20.96;60.25
80248;BME280;69560;52.206;21.018;2023-09-19T07:05:27;99365.39;;;21.05;60.34
80248;BME280;69560;52.206;21.018;2023-09-19T07:07:54;99367.44;;;21.13;60.20
80248;BME280;69560;52.206;21.018;2023-09-19T07:10:22;99366.52;;;21.18;59.90
80248;BME280;69560;52.206;21.018;2023-09-19T07:12:57;99369.33;;;21.25;60.06
80248;BME280;69560;52.206;21.018;2023-09-19T07:15:27;99366.38;;;21.34;59.92
80248;BME280;69560;52.206;21.018;2023-09-19T07:17:54;99370.00;;;21.43;59.67
80248;BME280;69560;52.206;21.018;2023-09-19T07:20:23;99373.45;;;21.47;59.72
80248;BME280;69560;52.206;21.018;2023-09-19T07:22:53;99376.77;;;21.53;59.63
80248;BME280;69560;52.206;21.018;2023-09-19T07:25:21;99380.95;;;21.62;59.51
80248;BME280;69560;52.206;21.018;2023-09-19T07:27:48;99387.02;;;21.70;59.42
80248;BME280;69560;52.206;21.018;2023-09-19T07:30:14;99387.70;;;21.77;59.20
80248;BME280;69560;52.206;21.018;2023-09-19T07:32:42;99391.30;;;21.84;59.12
80248;BME280;69560;52.206;21.018;2023-09-19T07:35:09;99395.57;;;21.92;59.03
80248;BME280;69560;52.206;21.018;2023-09-19T07:37:35;99397.27;;;22.00;58.91
80248;BME280;69560;52.206;21.018;2023-09-19T07:40:03;99403.93;;;22.04;58.66
80248;BME280;69560;52.206;21.018;2023-09-19T07:42:36;99405.33;;;22.06;58.45
80248;BME280;69560;52.206;21.018;2023-09-19T07:45:08;99400.92;;;22.11;58.36
80248;BME280;69560;52.206;21.018;2023-09-19T07:47:35;99405.20;;;22.20;58.37
80248;BME280;69560;52.206;21.018;2023-09-19T07:50:02;99404.13;;;22.27;58.33
80248;BME280;69560;52.206;21.018;2023-09-19T07:52:29;99402.75;;;22.35;58.25
80248;BME280;69560;52.206;21.018;2023-09-19T07:54:56;99404.00;;;22.46;58.09
80248;BME280;69560;52.206;21.018;2023-09-19T07:57:24;99405.56;;;22.57;57.98
80248;BME280;69560;52.206;21.018;2023-09-19T07:59:51;99408.61;;;22.65;57.74
80248;BME280;69560;52.206;21.018;2023-09-19T08:02:17;99415.99;;;22.72;57.57
80248;BME280;69560;52.206;21.018;2023-09-19T08:04:45;99409.29;;;22.77;57.57
80248;BME280;69560;52.206;21.018;2023-09-19T08:07:15;99412.75;;;22.83;57.25
80248;BME280;69560;52.206;21.018;2023-09-19T08:09:41;99417.02;;;22.85;57.07
80248;BME280;69560;52.206;21.018;2023-09-19T08:12:12;99415.07;;;22.89;57.09
80248;BME280;69560;52.206;21.018;2023-09-19T08:14:39;99417.61;;;22.93;57.06
80248;BME280;69560;52.206;21.018;2023-09-19T08:17:07;99415.55;;;23.00;56.98
80248;BME280;69560;52.206;21.018;2023-09-19T08:19:34;99423.59;;;23.06;56.86
80248;BME280;69560;52.206;21.018;2023-09-19T08:22:02;99422.39;;;23.13;56.82
80248;BME280;69560;52.206;21.018;2023-09-19T08:24:30;99427.13;;;23.19;56.56
80248;BME280;69560;52.206;21.018;2023-09-19T08:26:57;99426.62;;;23.26;56.60
80248;BME280;69560;52.206;21.018;2023-09-19T08:29:24;99427.42;;;23.33;56.42
80248;BME280;69560;52.206;21.018;2023-09-19T08:31:55;99423.46;;;23.40;56.25
80248;BME280;69560;52.206;21.018;2023-09-19T08:34:25;99424.35;;;23.52;56.28
80248;BME280;69560;52.206;21.018;2023-09-19T08:36:53;99430.17;;;23.63;56.14
80248;BME280;69560;52.206;21.018;2023-09-19T08:39:26;99430.42;;;23.70;56.03
80248;BME280;69560;52.206;21.018;2023-09-19T08:42:00;99432.27;;;23.70;55.73
80248;BME280;69560;52.206;21.018;2023-09-19T08:44:27;99431.57;;;23.62;55.34
80248;BME280;69560;52.206;21.018;2023-09-19T08:52:25;99431.02;;;23.52;55.33
80248;BME280;69560;52.206;21.018;2023-09-19T08:54:58;99428.70;;;23.47;55.25
80248;BME280;69560;52.206;21.018;2023-09-19T08:57:29;99424.30;;;23.45;55.31
80248;BME280;69560;52.206;21.018;2023-09-19T09:00:00;99425.06;;;23.42;55.35
80248;BME280;69560;52.206;21.018;2023-09-19T09:02:28;99424.06;;;23.38;55.24
80248;BME280;69560;52.206;21.018;2023-09-19T09:04:56;99426.08;;;23.34;55.36
80248;BME280;69560;52.206;21.018;2023-09-19T09:07:24;99424.35;;;23.33;55.66
80248;BME280;69560;52.206;21.018;2023-09-19T09:09:51;99429.48;;;23.32;55.45
80248;BME280;69560;52.206;21.018;2023-09-19T09:12:18;99431.55;;;23.33;55.57
80248;BME280;69560;52.206;21.018;2023-09-19T09:14:45;99435.55;;;23.34;55.44
80248;BME280;69560;52.206;21.018;2023-09-19T09:17:16;99443.38;;;23.33;55.45
80248;BME280;69560;52.206;21.018;2023-09-19T09:19:46;99446.33;;;23.29;55.30
80248;BME280;69560;52.206;21.018;2023-09-19T09:22:14;99452.20;;;23.26;55.29
80248;BME280;69560;52.206;21.018;2023-09-19T09:24:58;99454.73;;;23.22;55.32
80248;BME280;69560;52.206;21.018;2023-09-19T09:27:25;99461.33;;;23.15;55.48
80248;BME280;69560;52.206;21.018;2023-09-19T09:29:52;99463.14;;;23.09;55.42
80248;BME280;69560;52.206;21.018;2023-09-19T09:32:22;99454.13;;;23.03;55.40
80248;BME280;69560;52.206;21.018;2023-09-19T09:34:54;99455.27;;;22.97;55.41
80248;BME280;69560;52.206;21.018;2023-09-19T09:37:21;99467.41;;;22.91;55.60
80248;BME280;69560;52.206;21.018;2023-09-19T09:39:55;99479.02;;;22.80;55.60
80248;BME280;69560;52.206;21.018;2023-09-19T09:42:44;99476.92;;;22.71;55.72
80248;BME280;69560;52.206;21.018;2023-09-19T09:45:23;99477.27;;;22.67;56.01
80248;BME280;69560;52.206;21.018;2023-09-19T09:48:00;99484.89;;;22.62;56.18
80248;BME280;69560;52.206;21.018;2023-09-19T09:50:31;99492.38;;;22.56;56.48
80248;BME280;69560;52.206;21.018;2023-09-19T09:53:28;99496.34;;;22.46;56.71
80248;BME280;69560;52.206;21.018;2023-09-19T09:56:05;99501.98;;;22.38;57.15
80248;BME280;69560;52.206;21.018;2023-09-19T09:58:36;99501.08;;;22.32;57.52
80248;BME280;69560;52.206;21.018;2023-09-19T10:01:04;99502.91;;;22.27;57.64
80248;BME280;69560;52.206;21.018;2023-09-19T10:03:42;99504.67;;;22.21;57.85
80248;BME280;69560;52.206;21.018;2023-09-19T10:06:15;99507.30;;;22.17;58.02
80248;BME280;69560;52.206;21.018;2023-09-19T10:11:31;99513.55;;;21.97;58.25
80248;BME280;69560;52.206;21.018;2023-09-19T10:14:00;99525.84;;;21.90;58.50
80248;BME280;69560;52.206;21.018;2023-09-19T10:16:29;99527.90;;;21.78;58.58
80248;BME280;69560;52.206;21.018;2023-09-19T10:18:59;99526.99;;;21.65;58.79
80248;BME280;69560;52.206;21.018;2023-09-19T10:21:28;99524.52;;;21.56;59.08
80248;BME280;69560;52.206;21.018;2023-09-19T10:23:58;99526.27;;;21.52;59.33
80248;BME280;69560;52.206;21.018;2023-09-19T10:26:29;99529.00;;;21.45;59.47
80248;BME280;69560;52.206;21.018;2023-09-19T10:28:57;99525.65;;;21.38;59.56
80248;BME280;69560;52.206;21.018;2023-09-19T10:31:28;99528.39;;;21.33;59.90
80248;BME280;69560;52.206;21.018;2023-09-19T10:33:55;99523.64;;;21.29;60.02
80248;BME280;69560;52.206;21.018;2023-09-19T10:36:24;99531.51;;;21.27;60.32
80248;BME280;69560;52.206;21.018;2023-09-19T10:38:54;99529.40;;;21.26;60.40
80248;BME280;69560;52.206;21.018;2023-09-19T10:41:22;99528.20;;;21.21;60.42
80248;BME280;69560;52.206;21.018;2023-09-19T10:43:51;99526.51;;;21.21;60.89
80248;BME280;69560;52.206;21.018;2023-09-19T10:46:20;99514.05;;;21.22;60.91
80248;BME280;69560;52.206;21.018;2023-09-19T10:48:47;99510.89;;;21.27;60.99
80248;BME280;69560;52.206;21.018;2023-09-19T10:51:19;99506.36;;;21.36;61.42
80248;BME280;69560;52.206;21.018;2023-09-19T10:53:51;99503.61;;;21.45;61.47
80248;BME280;69560;52.206;21.018;2023-09-19T10:56:24;99509.38;;;21.53;61.40
80248;BME280;69560;52.206;21.018;2023-09-19T10:59:10;99515.29;;;21.56;61.15
80248;BME280;69560;52.206;21.018;2023-09-19T11:01:49;99519.14;;;21.59;61.38
80248;BME280;69560;52.206;21.018;2023-09-19T11:04:24;99524.89;;;21.65;61.52
80248;BME280;69560;52.206;21.018;2023-09-19T11:07:19;99524.32;;;21.68;61.48
80248;BME280;69560;52.206;21.018;2023-09-19T11:09:49;99522.15;;;21.69;61.57
80248;BME280;69560;52.206;21.018;2023-09-19T11:14:52;99519.67;;;21.80;61.65
80248;BME280;69560;52.206;21.018;2023-09-19T11:25:44;99529.38;;;21.93;61.52
80248;BME280;69560;52.206;21.018;2023-09-19T11:30:44;99531.60;;;21.99;61.32
80248;BME280;69560;52.206;21.018;2023-09-19T11:33:27;99535.16;;;22.01;61.57
80248;BME280;69560;52.206;21.018;2023-09-19T11:36:05;99535.77;;;22.02;61.42
80248;BME280;69560;52.206;21.018;2023-09-19T11:43:53;99534.31;;;22.11;61.40
80248;BME280;69560;52.206;21.018;2023-09-19T11:46:25;99533.34;;;22.11;61.34
80248;BME280;69560;52.206;21.018;2023-09-19T11:48:52;99532.36;;;22.11;61.51
80248;BME280;69560;52.206;21.018;2023-09-19T11:51:21;99538.40;;;22.10;61.52
80248;BME280;69560;52.206;21.018;2023-09-19T11:53:57;99539.68;;;22.12;61.42
80248;BME280;69560;52.206;21.018;2023-09-19T11:56:26;99540.84;;;22.11;61.44
80248;BME280;69560;52.206;21.018;2023-09-19T11:58:57;99542.56;;;22.10;61.42
80248;BME280;69560;52.206;21.018;2023-09-19T12:03:57;99546.70;;;22.10;61.44
80248;BME280;69560;52.206;21.018;2023-09-19T12:06:28;99552.61;;;22.09;61.37
80248;BME280;69560;52.206;21.018;2023-09-19T12:09:03;99550.27;;;22.07;61.44
80248;BME280;69560;52.206;21.018;2023-09-19T12:11:41;99549.98;;;22.07;61.33
80248;BME280;69560;52.206;21.018;2023-09-19T12:14:09;99554.70;;;22.05;61.44
80248;BME280;69560;52.206;21.018;2023-09-19T12:16:35;99554.70;;;22.07;61.26
80248;BME280;69560;52.206;21.018;2023-09-19T12:19:19;99554.95;;;22.05;61.42
80248;BME280;69560;52.206;21.018;2023-09-19T12:22:03;99558.48;;;22.03;61.40
80248;BME280;69560;52.206;21.018;2023-09-19T12:24:32;99566.42;;;21.98;61.22
80248;BME280;69560;52.206;21.018;2023-09-19T12:27:00;99568.34;;;21.93;61.31
80248;BME280;69560;52.206;21.018;2023-09-19T12:29:27;99572.30;;;21.90;61.27
80248;BME280;69560;52.206;21.018;2023-09-19T12:31:57;99571.84;;;21.87;61.19
80248;BME280;69560;52.206;21.018;2023-09-19T12:34:34;99573.52;;;21.81;61.20
80248;BME280;69560;52.206;21.018;2023-09-19T12:37:13;99573.83;;;21.76;61.32
80248;BME280;69560;52.206;21.018;2023-09-19T12:40:07;99573.88;;;21.71;61.67
80248;BME280;69560;52.206;21.018;2023-09-19T12:42:45;99575.52;;;21.72;61.82
80248;BME280;69560;52.206;21.018;2023-09-19T12:45:13;99578.05;;;21.74;61.81
80248;BME280;69560;52.206;21.018;2023-09-19T12:53:35;99580.17;;;21.73;61.66
80248;BME280;69560;52.206;21.018;2023-09-19T12:56:06;99574.39;;;21.72;61.68
80248;BME280;69560;52.206;21.018;2023-09-19T12:58:57;99573.52;;;21.72;61.62
80248;BME280;69560;52.206;21.018;2023-09-19T13:01:27;99570.83;;;21.68;61.80
80248;BME280;69560;52.206;21.018;2023-09-19T13:04:16;99570.92;;;21.70;62.05
80248;BME280;69560;52.206;21.018;2023-09-19T13:06:46;99566.88;;;21.74;62.07
80248;BME280;69560;52.206;21.018;2023-09-19T13:09:20;99566.60;;;21.81;62.23
80248;BME280;69560;52.206;21.018;2023-09-19T13:11:46;99566.13;;;21.87;62.21
80248;BME280;69560;52.206;21.018;2023-09-19T13:14:15;99568.66;;;21.90;62.10
80248;BME280;69560;52.206;21.018;2023-09-19T13:17:03;99565.75;;;21.92;62.11
80248;BME280;69560;52.206;21.018;2023-09-19T13:19:43;99567.55;;;21.92;61.99
80248;BME280;69560;52.206;21.018;2023-09-19T13:22:41;99571.07;;;21.91;61.94
80248;BME280;69560;52.206;21.018;2023-09-19T13:25:16;99568.12;;;21.88;61.88
80248;BME280;69560;52.206;21.018;2023-09-19T13:27:53;99571.88;;;21.87;61.66
80248;BME280;69560;52.206;21.018;2023-09-19T13:30:24;99571.55;;;21.85;61.79
80248;BME280;69560;52.206;21.018;2023-09-19T13:32:52;99575.95;;;21.83;61.84
80248;BME280;69560;52.206;21.018;2023-09-19T13:35:20;99576.83;;;21.81;61.84
80248;BME280;69560;52.206;21.018;2023-09-19T13:37:47;99579.93;;;21.79;61.96
80248;BME280;69560;52.206;21.018;2023-09-19T13:40:15;99581.91;;;21.78;62.03
80248;BME280;69560;52.206;21.018;2023-09-19T13:42:43;99582.14;;;21.79;62.13
80248;BME280;69560;52.206;21.018;2023-09-19T13:45:09;99582.42;;;21.80;62.09
80248;BME280;69560;52.206;21.018;2023-09-19T13:47:38;99583.48;;;21.83;62.20
80248;BME280;69560;52.206;21.018;2023-09-19T13:50:06;99584.73;;;21.86;62.29
80248;BME280;69560;52.206;21.018;2023-09-19T13:52:33;99586.50;;;21.88;62.28
80248;BME280;69560;52.206;21.018;2023-09-19T13:54:59;99586.16;;;21.89;62.11